sensor_id;sensor_type;location;lat;lon;timestamp;pressure;altitude;pressure_sealevel;temperature;humidity
14689;BME280;7432;48.728;9.154;2023-04-26T00:01:29;96610.47;;;6.61;89.53
14689;BME280;7432;48.728;9.154;2023-04-26T00:03:55;96602.50;;;6.64;90.51
14689;BME280;7432;48.728;9.154;2023-04-26T00:06:23;96605.63;;;6.68;90.59
14689;BME280;7432;48.728;9.154;2023-04-26T00:08:51;96601.03;;;6.71;90.00
14689;BME280;7432;48.728;9.154;2023-04-26T00:11:17;96601.19;;;6.79;88.57
14689;BME280;7432;48.728;9.154;2023-04-26T00:13:44;96605.09;;;6.74;87.69
14689;BME280;7432;48.728;9.154;2023-04-26T00:16:12;96603.09;;;6.77;87.62
14689;BME280;7432;48.728;9.154;2023-04-26T00:18:38;96601.19;;;6.79;88.52
14689;BME280;7432;48.728;9.154;2023-04-26T00:21:05;96602.94;;;6.88;84.99
14689;BME280;7432;48.728;9.154;2023-04-26T00:23:32;96602.00;;;6.80;81.84
14689;BME280;7432;48.728;9.154;2023-04-26T00:26:00;96594.72;;;6.75;81.43
14689;BME280;7432;48.728;9.154;2023-04-26T00:28:27;96601.31;;;6.78;83.58
14689;BME280;7432;48.728;9.154;2023-04-26T00:30:54;96607.50;;;6.75;82.40
14689;BME280;7432;48.728;9.154;2023-04-26T00:33:21;96602.91;;;6.60;79.87
14689;BME280;7432;48.728;9.154;2023-04-26T00:35:48;96598.88;;;6.67;78.78
14689;BME280;7432;48.728;9.154;2023-04-26T00:38:14;96598.34;;;6.63;81.07
14689;BME280;7432;48.728;9.154;2023-04-26T00:40:42;96597.69;;;6.61;81.52
14689;BME280;7432;48.728;9.154;2023-04-26T00:43:09;96595.66;;;6.55;83.89
14689;BME280;7432;48.728;9.154;2023-04-26T00:45:36;96597.38;;;6.54;84.54
14689;BME280;7432;48.728;9.154;2023-04-26T00:48:02;96595.75;;;6.53;84.61
14689;BME280;7432;48.728;9.154;2023-04-26T00:50:30;96593.63;;;6.49;86.00
14689;BME280;7432;48.728;9.154;2023-04-26T00:52:56;96596.16;;;6.49;85.68
14689;BME280;7432;48.728;9.154;2023-04-26T00:55:24;96606.00;;;6.44;86.29
14689;BME280;7432;48.728;9.154;2023-04-26T00:57:52;96600.03;;;6.34;87.05
14689;BME280;7432;48.728;9.154;2023-04-26T01:00:19;96594.38;;;6.30;86.82
14689;BME280;7432;48.728;9.154;2023-04-26T01:02:46;96603.13;;;6.28;88.39
14689;BME280;7432;48.728;9.154;2023-04-26T01:05:12;96599.34;;;6.32;88.05
14689;BME280;7432;48.728;9.154;2023-04-26T01:07:39;96602.59;;;6.34;87.87
14689;BME280;7432;48.728;9.154;2023-04-26T01:10:06;96605.28;;;6.32;87.20
14689;BME280;7432;48.728;9.154;2023-04-26T01:12:33;96610.16;;;6.35;88.19
14689;BME280;7432;48.728;9.154;2023-04-26T01:15:03;96604.88;;;6.37;87.46
14689;BME280;7432;48.728;9.154;2023-04-26T01:17:30;96610.16;;;6.35;87.01
14689;BME280;7432;48.728;9.154;2023-04-26T01:19:57;96607.69;;;6.34;87.63
14689;BME280;7432;48.728;9.154;2023-04-26T01:22:23;96598.69;;;6.30;87.24
14689;BME280;7432;48.728;9.154;2023-04-26T01:24:53;96602.16;;;6.29;88.12
14689;BME280;7432;48.728;9.154;2023-04-26T01:27:20;96596.00;;;6.31;88.25
14689;BME280;7432;48.728;9.154;2023-04-26T01:29:46;96588.72;;;6.27;86.95
14689;BME280;7432;48.728;9.154;2023-04-26T01:32:13;96591.69;;;6.22;86.79
14689;BME280;7432;48.728;9.154;2023-04-26T01:34:39;96590.56;;;6.15;87.02
14689;BME280;7432;48.728;9.154;2023-04-26T01:37:05;96593.25;;;6.14;86.58
14689;BME280;7432;48.728;9.154;2023-04-26T01:39:33;96577.34;;;6.01;86.85
14689;BME280;7432;48.728;9.154;2023-04-26T01:42:02;96589.19;;;6.02;85.35
14689;BME280;7432;48.728;9.154;2023-04-26T01:44:28;96597.81;;;6.01;85.57
14689;BME280;7432;48.728;9.154;2023-04-26T01:46:55;96594.28;;;5.92;85.60
14689;BME280;7432;48.728;9.154;2023-04-26T01:49:21;96599.44;;;5.81;85.54
14689;BME280;7432;48.728;9.154;2023-04-26T01:51:49;96597.88;;;5.69;85.90
14689;BME280;7432;48.728;9.154;2023-04-26T01:54:15;96595.56;;;5.56;86.53
14689;BME280;7432;48.728;9.154;2023-04-26T01:56:42;96596.19;;;5.49;86.64
14689;BME280;7432;48.728;9.154;2023-04-26T01:59:09;96593.63;;;5.49;87.11
14689;BME280;7432;48.728;9.154;2023-04-26T02:01:36;96588.78;;;5.46;87.14
14689;BME280;7432;48.728;9.154;2023-04-26T02:04:02;96595.13;;;5.51;87.23
14689;BME280;7432;48.728;9.154;2023-04-26T02:06:30;96594.06;;;5.54;86.77
14689;BME280;7432;48.728;9.154;2023-04-26T02:08:56;96585.19;;;5.58;86.21
14689;BME280;7432;48.728;9.154;2023-04-26T02:11:23;96579.84;;;5.61;83.97
14689;BME280;7432;48.728;9.154;2023-04-26T02:13:51;96579.72;;;5.62;82.74
14689;BME280;7432;48.728;9.154;2023-04-26T02:16:18;96585.38;;;5.66;81.94
14689;BME280;7432;48.728;9.154;2023-04-26T02:18:45;96586.06;;;5.68;81.84
14689;BME280;7432;48.728;9.154;2023-04-26T02:21:15;96582.66;;;5.58;83.43
14689;BME280;7432;48.728;9.154;2023-04-26T02:23:42;96583.69;;;5.46;85.23
14689;BME280;7432;48.728;9.154;2023-04-26T02:26:08;96579.03;;;5.30;86.29
14689;BME280;7432;48.728;9.154;2023-04-26T02:28:35;96581.25;;;5.23;87.04
14689;BME280;7432;48.728;9.154;2023-04-26T02:31:02;96583.38;;;5.18;87.65
14689;BME280;7432;48.728;9.154;2023-04-26T02:33:30;96587.91;;;5.15;87.88
14689;BME280;7432;48.728;9.154;2023-04-26T02:35:56;96590.22;;;4.97;89.64
14689;BME280;7432;48.728;9.154;2023-04-26T02:38:23;96598.31;;;5.02;88.75
14689;BME280;7432;48.728;9.154;2023-04-26T02:40:56;96598.31;;;5.02;89.78
14689;BME280;7432;48.728;9.154;2023-04-26T02:43:23;96602.47;;;5.03;89.92
14689;BME280;7432;48.728;9.154;2023-04-26T02:45:49;96598.06;;;5.05;90.32
14689;BME280;7432;48.728;9.154;2023-04-26T02:48:16;96604.66;;;5.08;90.45
14689;BME280;7432;48.728;9.154;2023-04-26T02:50:43;96600.06;;;5.02;90.31
14689;BME280;7432;48.728;9.154;2023-04-26T02:53:10;96598.19;;;5.04;90.76
14689;BME280;7432;48.728;9.154;2023-04-26T02:55:37;96600.63;;;5.05;90.62
14689;BME280;7432;48.728;9.154;2023-04-26T02:58:03;96594.25;;;5.20;90.08
14689;BME280;7432;48.728;9.154;2023-04-26T03:00:30;96589.72;;;5.24;90.13
14689;BME280;7432;48.728;9.154;2023-04-26T03:02:58;96594.94;;;5.22;90.03
14689;BME280;7432;48.728;9.154;2023-04-26T03:05:24;96597.94;;;5.27;90.40
14689;BME280;7432;48.728;9.154;2023-04-26T03:07:53;96604.81;;;5.27;90.37
14689;BME280;7432;48.728;9.154;2023-04-26T03:10:19;96599.13;;;5.23;90.86
14689;BME280;7432;48.728;9.154;2023-04-26T03:12:45;96601.94;;;5.20;90.96
14689;BME280;7432;48.728;9.154;2023-04-26T03:15:12;96606.41;;;5.28;90.79
14689;BME280;7432;48.728;9.154;2023-04-26T03:17:38;96600.47;;;5.27;90.54
14689;BME280;7432;48.728;9.154;2023-04-26T03:20:05;96602.06;;;5.19;91.31
14689;BME280;7432;48.728;9.154;2023-04-26T03:22:32;96604.09;;;5.25;91.68
14689;BME280;7432;48.728;9.154;2023-04-26T03:25:00;96606.03;;;5.32;92.12
14689;BME280;7432;48.728;9.154;2023-04-26T03:27:28;96600.47;;;5.27;91.76
14689;BME280;7432;48.728;9.154;2023-04-26T03:29:54;96607.72;;;5.22;91.42
14689;BME280;7432;48.728;9.154;2023-04-26T03:32:20;96599.88;;;5.14;91.82
14689;BME280;7432;48.728;9.154;2023-04-26T03:34:47;96598.56;;;5.20;91.72
14689;BME280;7432;48.728;9.154;2023-04-26T03:37:14;96599.44;;;5.09;91.71
14689;BME280;7432;48.728;9.154;2023-04-26T03:39:40;96599.00;;;5.04;91.83
14689;BME280;7432;48.728;9.154;2023-04-26T03:42:08;96602.28;;;4.95;91.96
14689;BME280;7432;48.728;9.154;2023-04-26T03:44:34;96599.53;;;4.87;92.37
14689;BME280;7432;48.728;9.154;2023-04-26T03:47:00;96588.22;;;4.80;92.44
14689;BME280;7432;48.728;9.154;2023-04-26T03:49:28;96593.78;;;4.74;92.72
14689;BME280;7432;48.728;9.154;2023-04-26T03:51:54;96593.97;;;4.61;92.61
14689;BME280;7432;48.728;9.154;2023-04-26T03:54:21;96592.13;;;4.52;93.19
14689;BME280;7432;48.728;9.154;2023-04-26T03:56:47;96597.31;;;4.51;93.40
14689;BME280;7432;48.728;9.154;2023-04-26T03:59:15;96592.63;;;4.35;93.49
14689;BME280;7432;48.728;9.154;2023-04-26T04:01:41;96593.22;;;4.28;93.50
14689;BME280;7432;48.728;9.154;2023-04-26T04:04:08;96603.28;;;4.29;93.78
14689;BME280;7432;48.728;9.154;2023-04-26T04:06:35;96599.25;;;4.27;94.81
14689;BME280;7432;48.728;9.154;2023-04-26T04:09:02;96594.88;;;4.17;94.79
14689;BME280;7432;48.728;9.154;2023-04-26T04:11:29;96594.75;;;4.08;95.34
14689;BME280;7432;48.728;9.154;2023-04-26T04:13:55;96591.63;;;4.04;95.35
14689;BME280;7432;48.728;9.154;2023-04-26T04:16:23;96593.03;;;4.08;94.86
14689;BME280;7432;48.728;9.154;2023-04-26T04:18:50;96592.56;;;4.03;95.76
14689;BME280;7432;48.728;9.154;2023-04-26T04:21:16;96596.03;;;4.02;96.19
14689;BME280;7432;48.728;9.154;2023-04-26T04:23:42;96588.84;;;4.07;95.98
14689;BME280;7432;48.728;9.154;2023-04-26T04:26:09;96587.94;;;4.08;95.41
14689;BME280;7432;48.728;9.154;2023-04-26T04:28:36;96599.75;;;4.09;95.35
14689;BME280;7432;48.728;9.154;2023-04-26T04:31:03;96595.22;;;4.13;95.43
14689;BME280;7432;48.728;9.154;2023-04-26T04:33:30;96598.56;;;4.25;95.59
14689;BME280;7432;48.728;9.154;2023-04-26T04:35:57;96601.78;;;4.38;94.72
14689;BME280;7432;48.728;9.154;2023-04-26T04:38:24;96601.97;;;4.46;94.19
14689;BME280;7432;48.728;9.154;2023-04-26T04:40:50;96605.44;;;4.56;93.88
14689;BME280;7432;48.728;9.154;2023-04-26T04:43:17;96608.06;;;4.65;93.25
14689;BME280;7432;48.728;9.154;2023-04-26T04:45:44;96603.09;;;4.64;93.25
14689;BME280;7432;48.728;9.154;2023-04-26T04:48:10;96600.56;;;4.64;93.58
14689;BME280;7432;48.728;9.154;2023-04-26T04:50:38;96607.84;;;4.68;93.95
14689;BME280;7432;48.728;9.154;2023-04-26T04:53:06;96605.38;;;4.78;93.29
14689;BME280;7432;48.728;9.154;2023-04-26T04:55:33;96605.06;;;4.92;93.54
14689;BME280;7432;48.728;9.154;2023-04-26T04:58:01;96610.69;;;5.07;92.98
14689;BME280;7432;48.728;9.154;2023-04-26T05:00:28;96613.53;;;5.24;92.40
14689;BME280;7432;48.728;9.154;2023-04-26T05:02:54;96614.13;;;5.37;92.45
14689;BME280;7432;48.728;9.154;2023-04-26T05:05:21;96626.13;;;5.47;92.01
14689;BME280;7432;48.728;9.154;2023-04-26T05:07:49;96626.25;;;5.66;91.79
14689;BME280;7432;48.728;9.154;2023-04-26T05:10:15;96617.78;;;5.86;91.06
14689;BME280;7432;48.728;9.154;2023-04-26T05:12:41;96624.75;;;6.14;89.85
14689;BME280;7432;48.728;9.154;2023-04-26T05:15:08;96626.16;;;6.37;89.20
14689;BME280;7432;48.728;9.154;2023-04-26T05:17:35;96632.13;;;6.47;88.79
14689;BME280;7432;48.728;9.154;2023-04-26T05:20:01;96637.41;;;6.65;88.94
14689;BME280;7432;48.728;9.154;2023-04-26T05:22:31;96641.47;;;6.77;87.43
14689;BME280;7432;48.728;9.154;2023-04-26T05:25:00;96637.28;;;6.86;87.68
14689;BME280;7432;48.728;9.154;2023-04-26T05:27:27;96642.69;;;6.92;86.66
14689;BME280;7432;48.728;9.154;2023-04-26T05:29:53;96653.19;;;7.08;87.24
14689;BME280;7432;48.728;9.154;2023-04-26T05:32:20;96653.59;;;7.23;86.35
14689;BME280;7432;48.728;9.154;2023-04-26T05:34:46;96648.19;;;7.45;85.18
14689;BME280;7432;48.728;9.154;2023-04-26T05:37:13;96659.75;;;7.68;84.36
14689;BME280;7432;48.728;9.154;2023-04-26T05:39:39;96649.44;;;7.88;82.96
14689;BME280;7432;48.728;9.154;2023-04-26T05:42:07;96649.66;;;8.04;81.35
14689;BME280;7432;48.728;9.154;2023-04-26T05:44:33;96656.09;;;8.17;80.84
14689;BME280;7432;48.728;9.154;2023-04-26T05:47:00;96658.09;;;8.33;78.02
14689;BME280;7432;48.728;9.154;2023-04-26T05:49:26;96655.25;;;8.63;79.17
14689;BME280;7432;48.728;9.154;2023-04-26T05:51:52;96661.03;;;8.83;74.72
14689;BME280;7432;48.728;9.154;2023-04-26T05:54:19;96664.44;;;9.19;73.41
14689;BME280;7432;48.728;9.154;2023-04-26T05:56:46;96665.63;;;9.24;72.23
14689;BME280;7432;48.728;9.154;2023-04-26T05:59:13;96670.16;;;9.30;72.54
14689;BME280;7432;48.728;9.154;2023-04-26T06:01:40;96668.25;;;9.50;70.88
14689;BME280;7432;48.728;9.154;2023-04-26T06:04:06;96668.56;;;9.73;69.76
14689;BME280;7432;48.728;9.154;2023-04-26T06:06:33;96664.19;;;10.50;70.00
14689;BME280;7432;48.728;9.154;2023-04-26T06:08:59;96677.75;;;11.67;65.48
14689;BME280;7432;48.728;9.154;2023-04-26T06:11:25;96670.94;;;12.69;60.08
14689;BME280;7432;48.728;9.154;2023-04-26T06:13:52;96676.34;;;13.44;57.20
14689;BME280;7432;48.728;9.154;2023-04-26T06:16:21;96678.00;;;14.70;53.51
14689;BME280;7432;48.728;9.154;2023-04-26T06:18:47;96683.09;;;16.26;50.03
14689;BME280;7432;48.728;9.154;2023-04-26T06:21:13;96696.09;;;16.54;48.74
14689;BME280;7432;48.728;9.154;2023-04-26T06:23:40;96695.09;;;16.27;47.84
14689;BME280;7432;48.728;9.154;2023-04-26T06:26:06;96693.53;;;16.33;47.43
14689;BME280;7432;48.728;9.154;2023-04-26T06:28:32;96697.66;;;16.89;44.93
14689;BME280;7432;48.728;9.154;2023-04-26T06:30:59;96700.00;;;18.69;42.50
14689;BME280;7432;48.728;9.154;2023-04-26T06:33:27;96694.63;;;19.15;41.11
14689;BME280;7432;48.728;9.154;2023-04-26T06:35:53;96698.25;;;18.44;40.38
14689;BME280;7432;48.728;9.154;2023-04-26T06:38:19;96699.84;;;18.45;40.93
14689;BME280;7432;48.728;9.154;2023-04-26T06:40:46;96704.22;;;18.70;40.41
14689;BME280;7432;48.728;9.154;2023-04-26T06:43:12;96702.84;;;18.68;40.47
14689;BME280;7432;48.728;9.154;2023-04-26T06:45:38;96719.28;;;18.68;39.81
14689;BME280;7432;48.728;9.154;2023-04-26T06:48:05;96703.91;;;18.08;40.10
14689;BME280;7432;48.728;9.154;2023-04-26T06:50:36;96699.22;;;18.62;39.10
14689;BME280;7432;48.728;9.154;2023-04-26T06:53:03;96701.81;;;19.89;37.41
14689;BME280;7432;48.728;9.154;2023-04-26T06:55:29;96702.22;;;21.14;35.51
14689;BME280;7432;48.728;9.154;2023-04-26T06:57:55;96707.78;;;21.18;34.35
14689;BME280;7432;48.728;9.154;2023-04-26T07:00:22;96704.28;;;21.24;34.17
14689;BME280;7432;48.728;9.154;2023-04-26T07:02:48;96700.34;;;23.14;32.18
14689;BME280;7432;48.728;9.154;2023-04-26T07:05:15;96701.84;;;24.66;30.73
14689;BME280;7432;48.728;9.154;2023-04-26T07:07:42;96707.31;;;24.81;29.19
14689;BME280;7432;48.728;9.154;2023-04-26T07:10:09;96689.56;;;25.42;28.84
14689;BME280;7432;48.728;9.154;2023-04-26T07:12:35;96691.91;;;26.65;26.83
14689;BME280;7432;48.728;9.154;2023-04-26T07:15:02;96690.28;;;26.64;27.00
14689;BME280;7432;48.728;9.154;2023-04-26T07:17:30;96681.28;;;26.55;25.82
14689;BME280;7432;48.728;9.154;2023-04-26T07:19:57;96681.63;;;26.69;26.47
14689;BME280;7432;48.728;9.154;2023-04-26T07:22:23;96687.66;;;26.64;26.49
14689;BME280;7432;48.728;9.154;2023-04-26T07:24:51;96681.81;;;27.19;25.26
14689;BME280;7432;48.728;9.154;2023-04-26T07:27:17;96680.47;;;25.81;26.70
14689;BME280;7432;48.728;9.154;2023-04-26T07:29:44;96685.03;;;26.22;25.35
14689;BME280;7432;48.728;9.154;2023-04-26T07:32:10;96690.75;;;25.29;25.93
14689;BME280;7432;48.728;9.154;2023-04-26T07:34:37;96679.44;;;24.47;26.46
14689;BME280;7432;48.728;9.154;2023-04-26T07:37:03;96672.91;;;23.83;27.19
14689;BME280;7432;48.728;9.154;2023-04-26T07:39:29;96676.75;;;24.80;26.65
14689;BME280;7432;48.728;9.154;2023-04-26T07:41:57;96683.75;;;26.30;25.21
14689;BME280;7432;48.728;9.154;2023-04-26T07:44:24;96682.13;;;27.23;24.53
14689;BME280;7432;48.728;9.154;2023-04-26T07:46:50;96677.41;;;25.62;25.13
14689;BME280;7432;48.728;9.154;2023-04-26T07:49:16;96673.59;;;22.65;27.90
14689;BME280;7432;48.728;9.154;2023-04-26T07:51:43;96677.38;;;22.11;30.39
14689;BME280;7432;48.728;9.154;2023-04-26T07:54:10;96670.19;;;21.12;29.68
14689;BME280;7432;48.728;9.154;2023-04-26T07:56:36;96663.50;;;19.76;31.60
14689;BME280;7432;48.728;9.154;2023-04-26T07:59:04;96672.03;;;19.65;31.33
14689;BME280;7432;48.728;9.154;2023-04-26T08:01:30;96666.75;;;19.47;32.17
14689;BME280;7432;48.728;9.154;2023-04-26T08:03:56;96675.72;;;20.86;31.48
14689;BME280;7432;48.728;9.154;2023-04-26T08:06:23;96680.44;;;22.55;28.47
14689;BME280;7432;48.728;9.154;2023-04-26T08:08:49;96682.09;;;23.80;27.02
14689;BME280;7432;48.728;9.154;2023-04-26T08:11:17;96682.94;;;24.91;26.65
14689;BME280;7432;48.728;9.154;2023-04-26T08:13:44;96679.25;;;25.62;26.11
14689;BME280;7432;48.728;9.154;2023-04-26T08:16:11;96682.50;;;27.77;24.06
14689;BME280;7432;48.728;9.154;2023-04-26T08:18:38;96689.81;;;28.86;21.51
14689;BME280;7432;48.728;9.154;2023-04-26T08:21:04;96692.53;;;28.45;22.06
14689;BME280;7432;48.728;9.154;2023-04-26T08:23:32;96693.06;;;27.56;23.24
14689;BME280;7432;48.728;9.154;2023-04-26T08:26:01;96698.88;;;25.01;25.58
14689;BME280;7432;48.728;9.154;2023-04-26T08:28:27;96686.88;;;24.88;26.26
14689;BME280;7432;48.728;9.154;2023-04-26T08:30:53;96684.63;;;22.90;27.10
14689;BME280;7432;48.728;9.154;2023-04-26T08:33:21;96679.63;;;24.62;26.16
14689;BME280;7432;48.728;9.154;2023-04-26T08:35:47;96687.97;;;26.73;24.57
14689;BME280;7432;48.728;9.154;2023-04-26T08:38:14;96697.00;;;28.75;23.55
14689;BME280;7432;48.728;9.154;2023-04-26T08:40:41;96700.25;;;29.21;22.13
14689;BME280;7432;48.728;9.154;2023-04-26T08:43:09;96690.78;;;27.08;23.71
14689;BME280;7432;48.728;9.154;2023-04-26T08:45:37;96679.31;;;23.14;28.01
14689;BME280;7432;48.728;9.154;2023-04-26T08:48:09;96685.25;;;20.20;31.22
14689;BME280;7432;48.728;9.154;2023-04-26T08:50:42;96685.03;;;18.32;33.37
14689;BME280;7432;48.728;9.154;2023-04-26T08:53:11;96679.06;;;17.72;35.23
14689;BME280;7432;48.728;9.154;2023-04-26T08:55:39;96683.00;;;17.49;36.47
14689;BME280;7432;48.728;9.154;2023-04-26T08:58:07;96675.03;;;16.49;37.67
14689;BME280;7432;48.728;9.154;2023-04-26T09:00:34;96685.91;;;15.33;40.96
14689;BME280;7432;48.728;9.154;2023-04-26T09:03:01;96679.38;;;14.51;41.20
14689;BME280;7432;48.728;9.154;2023-04-26T09:05:28;96678.00;;;14.11;42.69
14689;BME280;7432;48.728;9.154;2023-04-26T09:07:59;96684.31;;;13.57;44.24
14689;BME280;7432;48.728;9.154;2023-04-26T09:10:26;96681.78;;;13.49;44.82
14689;BME280;7432;48.728;9.154;2023-04-26T09:12:53;96681.63;;;13.28;46.20
14689;BME280;7432;48.728;9.154;2023-04-26T09:15:21;96676.41;;;13.05;45.00
14689;BME280;7432;48.728;9.154;2023-04-26T09:17:48;96679.13;;;13.12;45.87
14689;BME280;7432;48.728;9.154;2023-04-26T09:20:21;96673.09;;;13.19;45.09
14689;BME280;7432;48.728;9.154;2023-04-26T09:22:48;96669.81;;;13.48;46.06
14689;BME280;7432;48.728;9.154;2023-04-26T09:25:17;96674.50;;;14.04;44.31
14689;BME280;7432;48.728;9.154;2023-04-26T09:27:44;96670.63;;;13.48;44.24
14689;BME280;7432;48.728;9.154;2023-04-26T09:30:12;96673.03;;;13.50;43.79
14689;BME280;7432;48.728;9.154;2023-04-26T09:32:49;96673.56;;;13.45;43.96
14689;BME280;7432;48.728;9.154;2023-04-26T09:35:27;96670.16;;;13.68;42.58
14689;BME280;7432;48.728;9.154;2023-04-26T09:37:55;96664.34;;;13.65;44.41
14689;BME280;7432;48.728;9.154;2023-04-26T09:40:25;96660.03;;;13.58;44.21
14689;BME280;7432;48.728;9.154;2023-04-26T09:42:56;96656.66;;;13.12;44.74
14689;BME280;7432;48.728;9.154;2023-04-26T09:45:23;96656.16;;;12.86;45.70
14689;BME280;7432;48.728;9.154;2023-04-26T09:47:49;96660.38;;;13.10;45.56
14689;BME280;7432;48.728;9.154;2023-04-26T09:50:25;96662.25;;;13.46;45.14
14689;BME280;7432;48.728;9.154;2023-04-26T09:52:51;96658.66;;;13.70;45.45
14689;BME280;7432;48.728;9.154;2023-04-26T09:55:26;96658.53;;;14.01;44.29
14689;BME280;7432;48.728;9.154;2023-04-26T09:57:54;96658.91;;;14.56;42.89
14689;BME280;7432;48.728;9.154;2023-04-26T10:00:20;96665.78;;;16.06;40.03
14689;BME280;7432;48.728;9.154;2023-04-26T10:02:48;96660.63;;;16.46;39.71
14689;BME280;7432;48.728;9.154;2023-04-26T10:05:15;96668.31;;;18.66;37.18
14689;BME280;7432;48.728;9.154;2023-04-26T10:07:41;96662.75;;;19.44;34.20
14689;BME280;7432;48.728;9.154;2023-04-26T10:10:09;96663.06;;;21.61;32.66
14689;BME280;7432;48.728;9.154;2023-04-26T10:12:39;96655.09;;;22.83;30.24
14689;BME280;7432;48.728;9.154;2023-04-26T10:15:08;96649.22;;;22.18;29.98
14689;BME280;7432;48.728;9.154;2023-04-26T10:17:35;96648.81;;;20.25;34.15
14689;BME280;7432;48.728;9.154;2023-04-26T10:20:01;96649.34;;;19.28;34.07
14689;BME280;7432;48.728;9.154;2023-04-26T10:22:32;96648.03;;;18.68;36.38
14689;BME280;7432;48.728;9.154;2023-04-26T10:25:01;96649.59;;;17.65;35.86
14689;BME280;7432;48.728;9.154;2023-04-26T10:27:48;96646.97;;;17.46;36.72
14689;BME280;7432;48.728;9.154;2023-04-26T10:30:16;96647.72;;;17.27;36.92
14689;BME280;7432;48.728;9.154;2023-04-26T10:33:16;96646.31;;;17.31;35.86
14689;BME280;7432;48.728;9.154;2023-04-26T10:36:06;96636.50;;;17.19;36.03
14689;BME280;7432;48.728;9.154;2023-04-26T10:38:35;96654.63;;;16.12;36.66
14689;BME280;7432;48.728;9.154;2023-04-26T10:41:27;96645.00;;;16.06;39.09
14689;BME280;7432;48.728;9.154;2023-04-26T10:43:55;96638.19;;;16.05;40.00
14689;BME280;7432;48.728;9.154;2023-04-26T10:46:35;96639.09;;;15.90;38.96
14689;BME280;7432;48.728;9.154;2023-04-26T10:49:15;96640.63;;;15.85;37.74
14689;BME280;7432;48.728;9.154;2023-04-26T10:52:08;96635.00;;;16.43;37.94
14689;BME280;7432;48.728;9.154;2023-04-26T10:54:55;96634.25;;;17.03;37.85
14689;BME280;7432;48.728;9.154;2023-04-26T10:57:23;96636.44;;;16.93;38.03
14689;BME280;7432;48.728;9.154;2023-04-26T11:00:18;96627.75;;;16.32;37.16
14689;BME280;7432;48.728;9.154;2023-04-26T11:03:05;96632.81;;;16.88;37.56
14689;BME280;7432;48.728;9.154;2023-04-26T11:05:53;96629.09;;;17.10;37.03
14689;BME280;7432;48.728;9.154;2023-04-26T11:08:23;96627.41;;;16.89;36.37
14689;BME280;7432;48.728;9.154;2023-04-26T11:10:56;96624.91;;;16.62;38.48
14689;BME280;7432;48.728;9.154;2023-04-26T11:13:22;96619.09;;;16.19;38.71
14689;BME280;7432;48.728;9.154;2023-04-26T11:15:52;96617.13;;;16.27;39.30
14689;BME280;7432;48.728;9.154;2023-04-26T11:18:20;96616.66;;;16.11;40.51
14689;BME280;7432;48.728;9.154;2023-04-26T11:20:46;96619.63;;;16.08;38.12
14689;BME280;7432;48.728;9.154;2023-04-26T11:23:13;96622.28;;;15.86;37.88
14689;BME280;7432;48.728;9.154;2023-04-26T11:25:39;96613.69;;;15.58;38.91
14689;BME280;7432;48.728;9.154;2023-04-26T11:28:06;96600.66;;;15.52;38.46
14689;BME280;7432;48.728;9.154;2023-04-26T11:30:32;96601.59;;;15.72;38.38
14689;BME280;7432;48.728;9.154;2023-04-26T11:33:01;96581.34;;;16.29;38.01
14689;BME280;7432;48.728;9.154;2023-04-26T11:35:28;96592.88;;;17.54;35.40
14689;BME280;7432;48.728;9.154;2023-04-26T11:37:57;96585.13;;;18.31;34.15
14689;BME280;7432;48.728;9.154;2023-04-26T11:40:26;96590.56;;;18.81;32.88
14689;BME280;7432;48.728;9.154;2023-04-26T11:42:53;96576.78;;;18.03;32.79
14689;BME280;7432;48.728;9.154;2023-04-26T11:45:19;96573.47;;;18.41;32.86
14689;BME280;7432;48.728;9.154;2023-04-26T11:47:46;96566.81;;;17.41;33.93
14689;BME280;7432;48.728;9.154;2023-04-26T11:50:14;96571.66;;;17.57;35.95
14689;BME280;7432;48.728;9.154;2023-04-26T11:52:40;96572.03;;;17.81;34.60
14689;BME280;7432;48.728;9.154;2023-04-26T11:55:08;96566.03;;;17.73;33.78
14689;BME280;7432;48.728;9.154;2023-04-26T11:57:34;96563.41;;;17.73;33.17
14689;BME280;7432;48.728;9.154;2023-04-26T12:00:11;96553.59;;;17.16;34.13
14689;BME280;7432;48.728;9.154;2023-04-26T12:02:39;96559.38;;;16.92;34.76
14689;BME280;7432;48.728;9.154;2023-04-26T12:05:06;96552.28;;;16.53;35.64
14689;BME280;7432;48.728;9.154;2023-04-26T12:07:36;96552.19;;;15.59;36.70
14689;BME280;7432;48.728;9.154;2023-04-26T12:10:15;96550.50;;;15.23;39.09
14689;BME280;7432;48.728;9.154;2023-04-26T12:12:48;96547.38;;;15.34;40.07
14689;BME280;7432;48.728;9.154;2023-04-26T12:15:15;96544.88;;;15.20;38.40
14689;BME280;7432;48.728;9.154;2023-04-26T12:17:52;96565.53;;;15.56;38.84
14689;BME280;7432;48.728;9.154;2023-04-26T12:20:25;96561.22;;;15.63;39.89
14689;BME280;7432;48.728;9.154;2023-04-26T12:23:01;96561.69;;;15.79;38.26
14689;BME280;7432;48.728;9.154;2023-04-26T12:25:28;96559.91;;;15.52;38.06
14689;BME280;7432;48.728;9.154;2023-04-26T12:27:55;96556.78;;;15.91;39.05
14689;BME280;7432;48.728;9.154;2023-04-26T12:30:21;96547.63;;;15.95;39.25
14689;BME280;7432;48.728;9.154;2023-04-26T12:32:48;96552.88;;;15.74;38.96
14689;BME280;7432;48.728;9.154;2023-04-26T12:35:14;96546.31;;;15.78;39.07
14689;BME280;7432;48.728;9.154;2023-04-26T12:37:41;96543.66;;;15.65;39.87
14689;BME280;7432;48.728;9.154;2023-04-26T12:40:10;96547.78;;;15.10;38.51
14689;BME280;7432;48.728;9.154;2023-04-26T12:42:37;96552.19;;;14.89;39.84
14689;BME280;7432;48.728;9.154;2023-04-26T12:45:04;96537.75;;;15.50;39.94
14689;BME280;7432;48.728;9.154;2023-04-26T12:47:32;96538.56;;;15.84;38.62
14689;BME280;7432;48.728;9.154;2023-04-26T12:49:58;96533.13;;;16.20;38.61
14689;BME280;7432;48.728;9.154;2023-04-26T12:52:25;96535.41;;;16.43;36.52
14689;BME280;7432;48.728;9.154;2023-04-26T12:54:51;96536.16;;;16.24;38.80
14689;BME280;7432;48.728;9.154;2023-04-26T12:57:19;96526.47;;;16.05;37.38
14689;BME280;7432;48.728;9.154;2023-04-26T12:59:46;96524.88;;;15.69;37.91
14689;BME280;7432;48.728;9.154;2023-04-26T13:02:12;96524.22;;;15.61;39.50
14689;BME280;7432;48.728;9.154;2023-04-26T13:04:39;96537.16;;;15.26;38.22
14689;BME280;7432;48.728;9.154;2023-04-26T13:07:05;96531.97;;;15.26;38.83
14689;BME280;7432;48.728;9.154;2023-04-26T13:09:32;96528.75;;;15.03;39.13
14689;BME280;7432;48.728;9.154;2023-04-26T13:11:59;96533.88;;;15.18;39.94
14689;BME280;7432;48.728;9.154;2023-04-26T13:14:27;96523.09;;;15.42;39.25
14689;BME280;7432;48.728;9.154;2023-04-26T13:16:53;96529.47;;;15.39;41.21
14689;BME280;7432;48.728;9.154;2023-04-26T13:19:20;96526.53;;;15.21;38.89